Time;durP1;ratioP1;P1;durP2;ratioP2;P2;SDS_P1;SDS_P2;PMS_P1;PMS_P2;Temp;Humidity;BMP_temperature;BMP_pressure;BME280_temperature;BME280_humidity;BME280_pressure;Samples;Min_cycle;Max_cycle;Signal;HPM_P1;HPM_P2
2022/06/27 00:01:51;;;;;;;6.72;4.35;;;;;;;;;;6167199;28;20047;-79
2022/06/27 00:04:53;;;;;;;5.63;4.40;;;;;;;;;;6183761;28;20058;-78
2022/06/27 00:07:54;;;;;;;5.55;4.10;;;;;;;;;;6174813;28;20152;-77
2022/06/27 00:10:56;;;;;;;4.80;4.00;;;;;;;;;;6175737;28;20050;-80
2022/06/27 00:13:58;;;;;;;7.10;4.20;;;;;;;;;;6175120;28;20043;-77
2022/06/27 00:16:59;;;;;;;5.30;4.00;;;;;;;;;;6136933;28;20524;-77
2022/06/27 00:20:03;;;;;;;5.03;3.55;;;;;;;;;;6183194;28;20046;-77
2022/06/27 00:23:04;;;;;;;3.95;3.55;;;;;;;;;;6166426;28;20054;-78
2022/06/27 00:26:06;;;;;;;5.38;3.60;;;;;;;;;;6158895;28;20068;-77
2022/06/27 00:29:08;;;;;;;3.88;3.47;;;;;;;;;;6181713;28;20050;-78
2022/06/27 00:32:10;;;;;;;4.90;3.38;;;;;;;;;;6183764;28;20070;-77
2022/06/27 00:35:11;;;;;;;5.33;3.53;;;;;;;;;;6189900;28;20065;-78
2022/06/27 00:38:13;;;;;;;4.18;3.78;;;;;;;;;;6175063;28;20416;-77
2022/06/27 00:41:15;;;;;;;4.95;3.60;;;;;;;;;;6182694;28;20043;-79
2022/06/27 00:44:33;;;;;;;3.85;3.20;;;;;;;;;;6176032;28;20700;-77
2022/06/27 00:47:35;;;;;;;5.43;3.05;;;;;;;;;;6170587;28;20049;-77
2022/06/27 00:50:38;;;;;;;4.07;3.50;;;;;;;;;;6167049;28;20039;-77
2022/06/27 00:53:40;;;;;;;3.55;3.25;;;;;;;;;;6182894;28;20125;-77
2022/06/27 00:56:41;;;;;;;5.20;3.60;;;;;;;;;;6175510;28;20066;-77
2022/06/27 00:59:44;;;;;;;5.70;3.65;;;;;;;;;;6183387;28;20211;-77
2022/06/27 01:02:46;;;;;;;6.88;4.05;;;;;;;;;;6173921;28;20050;-77
2022/06/27 01:05:53;;;;;;;5.38;3.78;;;;;;;;;;6192452;28;20384;-78
2022/06/27 01:08:56;;;;;;;4.78;3.40;;;;;;;;;;6185318;28;20046;-78
2022/06/27 01:11:57;;;;;;;5.00;3.63;;;;;;;;;;6186160;28;20042;-78
2022/06/27 01:15:01;;;;;;;3.38;3.08;;;;;;;;;;6179146;28;20647;-79
2022/06/27 01:18:03;;;;;;;4.45;3.60;;;;;;;;;;6177248;28;20058;-79
2022/06/27 01:21:07;;;;;;;6.10;3.23;;;;;;;;;;6177407;28;20479;-78
2022/06/27 01:24:08;;;;;;;5.18;4.20;;;;;;;;;;6185055;28;20046;-76
2022/06/27 01:27:11;;;;;;;5.15;3.25;;;;;;;;;;6142581;28;20070;-79
2022/06/27 01:30:13;;;;;;;5.73;3.03;;;;;;;;;;6168633;28;20063;-79
2022/06/27 01:33:14;;;;;;;3.53;3.03;;;;;;;;;;6180968;28;20050;-79
2022/06/27 01:39:36;;;;;;;6.03;2.80;;;;;;;;;;6153229;28;20047;-78
2022/06/27 01:42:38;;;;;;;4.85;2.58;;;;;;;;;;6174748;28;20066;-77
2022/06/27 01:45:41;;;;;;;2.88;2.55;;;;;;;;;;6155861;28;20044;-79
2022/06/27 01:48:44;;;;;;;3.72;2.63;;;;;;;;;;6179450;28;20082;-78
2022/06/27 01:51:48;;;;;;;3.55;2.50;;;;;;;;;;6183183;28;20090;-79
2022/06/27 01:54:50;;;;;;;4.47;2.70;;;;;;;;;;6172182;28;20392;-79
2022/06/27 01:57:52;;;;;;;4.32;2.88;;;;;;;;;;6170387;28;20066;-77
2022/06/27 02:00:54;;;;;;;3.40;3.10;;;;;;;;;;6174318;28;20049;-78
2022/06/27 02:03:59;;;;;;;3.78;2.83;;;;;;;;;;6182320;28;20101;-79
2022/06/27 02:07:01;;;;;;;2.50;2.30;;;;;;;;;;6175677;28;20050;-78
2022/06/27 02:10:03;;;;;;;3.17;2.60;;;;;;;;;;6176687;28;20046;-80
2022/06/27 02:13:05;;;;;;;4.53;2.50;;;;;;;;;;6176508;28;20053;-79
2022/06/27 02:16:12;;;;;;;4.05;2.42;;;;;;;;;;6183979;28;20077;-80
2022/06/27 02:19:17;;;;;;;4.93;2.75;;;;;;;;;;6190778;28;20072;-76
2022/06/27 02:22:19;;;;;;;3.03;2.60;;;;;;;;;;6194004;28;20074;-76
2022/06/27 02:25:20;;;;;;;5.97;2.88;;;;;;;;;;6177965;28;20093;-78
2022/06/27 02:28:23;;;;;;;7.70;3.30;;;;;;;;;;6189446;28;20097;-78
2022/06/27 02:31:25;;;;;;;3.30;2.85;;;;;;;;;;6149145;28;20125;-79
2022/06/27 02:34:28;;;;;;;4.65;3.20;;;;;;;;;;6178653;28;20113;-77
2022/06/27 02:37:34;;;;;;;3.55;3.20;;;;;;;;;;6172858;28;20533;-81
2022/06/27 02:40:39;;;;;;;4.10;3.28;;;;;;;;;;6183184;28;20050;-79
2022/06/27 02:43:44;;;;;;;5.05;3.45;;;;;;;;;;6178653;28;20734;-80
2022/06/27 02:46:46;;;;;;;4.80;3.22;;;;;;;;;;6172306;28;20105;-82
2022/06/27 02:49:48;;;;;;;4.67;3.10;;;;;;;;;;6177408;28;20205;-81
2022/06/27 02:52:54;;;;;;;4.40;3.33;;;;;;;;;;6172675;28;20521;-80
2022/06/27 02:55:59;;;;;;;4.22;2.92;;;;;;;;;;6171534;28;20508;-83
2022/06/27 02:59:16;;;;;;;3.80;3.00;;;;;;;;;;6180637;28;20088;-80
2022/06/27 03:02:20;;;;;;;5.90;3.40;;;;;;;;;;6175172;28;20051;-83
2022/06/27 03:05:56;;;;;;;4.15;3.50;;;;;;;;;;6178475;28;20066;-79
2022/06/27 03:08:58;;;;;;;4.28;3.17;;;;;;;;;;6181087;28;20046;-79
2022/06/27 03:12:00;;;;;;;4.07;3.67;;;;;;;;;;6177190;28;20054;-79
2022/06/27 03:15:07;;;;;;;4.43;4.00;;;;;;;;;;6190558;28;20035;-79
2022/06/27 03:18:12;;;;;;;4.70;4.20;;;;;;;;;;6192977;28;20042;-77
2022/06/27 03:21:33;;;;;;;4.93;4.25;;;;;;;;;;6183825;28;20038;-78
2022/06/27 03:24:36;;;;;;;7.75;4.82;;;;;;;;;;6190554;28;20050;-80
2022/06/27 03:27:38;;;;;;;7.18;5.05;;;;;;;;;;6194981;28;20511;-84
2022/06/27 03:30:41;;;;;;;7.30;5.47;;;;;;;;;;6155279;28;20038;-80
2022/06/27 03:33:43;;;;;;;7.60;5.10;;;;;;;;;;6181386;28;20507;-80
2022/06/27 03:37:02;;;;;;;7.35;4.90;;;;;;;;;;6184591;28;20511;-79
2022/06/27 03:40:06;;;;;;;4.57;4.15;;;;;;;;;;6172657;28;20126;-80
2022/06/27 03:43:11;;;;;;;4.47;4.03;;;;;;;;;;6153482;28;20163;-84
2022/06/27 03:46:12;;;;;;;5.43;4.30;;;;;;;;;;6152263;28;20054;-83
2022/06/27 03:52:45;;;;;;;7.38;5.18;;;;;;;;;;6176512;28;20054;-79
2022/06/27 03:55:47;;;;;;;;;;;;;;;;;;6168858;28;20046;-81
2022/06/27 03:58:49;;;;;;;5.63;3.70;;;;;;;;;;6179705;28;19929;-82
2022/06/27 04:01:51;;;;;;;7.40;4.20;;;;;;;;;;6173145;28;20062;-81
2022/06/27 04:04:53;;;;;;;4.22;3.83;;;;;;;;;;6181355;28;20042;-81
2022/06/27 04:07:55;;;;;;;5.55;3.65;;;;;;;;;;6174670;28;20042;-79
2022/06/27 04:10:57;;;;;;;7.30;3.92;;;;;;;;;;6151164;28;20676;-80
2022/06/27 04:14:04;;;;;;;6.00;4.15;;;;;;;;;;6166690;28;20046;-83
2022/06/27 04:17:15;;;;;;;8.68;4.63;;;;;;;;;;6163770;28;20132;-81
2022/06/27 04:20:42;;;;;;;5.13;4.32;;;;;;;;;;6180967;28;20057;-79
2022/06/27 04:23:46;;;;;;;9.40;4.55;;;;;;;;;;6168263;28;20047;-82
2022/06/27 04:26:56;;;;;;;7.32;5.30;;;;;;;;;;6179154;28;20050;-81
2022/06/27 04:29:57;;;;;;;7.82;4.80;;;;;;;;;;6160054;28;20046;-79
2022/06/27 04:32:59;;;;;;;7.65;4.40;;;;;;;;;;6167438;28;20049;-82
2022/06/27 04:36:02;;;;;;;6.10;5.45;;;;;;;;;;6173959;28;20058;-82
2022/06/27 04:39:05;;;;;;;8.65;5.97;;;;;;;;;;6151731;28;20137;-81
2022/06/27 04:42:43;;;;;;;8.55;5.45;;;;;;;;;;6166210;28;20039;-80
2022/06/27 04:45:45;;;;;;;6.78;5.25;;;;;;;;;;6168317;28;20062;-81
2022/06/27 04:49:10;;;;;;;6.72;5.28;;;;;;;;;;6148004;28;20054;-80
2022/06/27 04:52:12;;;;;;;7.20;6.03;;;;;;;;;;6173187;28;20077;-82
2022/06/27 04:55:15;;;;;;;16.08;6.32;;;;;;;;;;6175011;28;20046;-84
2022/06/27 04:58:17;;;;;;;10.57;5.70;;;;;;;;;;6183117;28;20051;-80
2022/06/27 05:01:19;;;;;;;10.77;6.13;;;;;;;;;;6178814;28;20055;-82
2022/06/27 05:04:28;;;;;;;10.43;6.13;;;;;;;;;;6178128;28;20046;-82
2022/06/27 05:07:31;;;;;;;10.38;6.50;;;;;;;;;;6175697;28;20046;-83
2022/06/27 05:10:33;;;;;;;;;;;;;;;;;;6177408;28;20408;-80
2022/06/27 05:13:34;;;;;;;9.20;6.28;;;;;;;;;;6176951;28;19938;-83
2022/06/27 05:16:41;;;;;;;8.95;6.97;;;;;;;;;;6178296;28;20060;-79
2022/06/27 05:19:44;;;;;;;10.33;7.20;;;;;;;;;;6179644;28;20054;-83
2022/06/27 05:22:46;;;;;;;9.10;7.20;;;;;;;;;;6169355;28;20066;-81
2022/06/27 05:25:48;;;;;;;9.88;7.70;;;;;;;;;;6173408;28;20133;-83
2022/06/27 05:28:49;;;;;;;10.85;8.00;;;;;;;;;;6166674;28;20042;-82
2022/06/27 05:31:51;;;;;;;9.57;7.32;;;;;;;;;;6170856;28;20679;-81
2022/06/27 05:35:03;;;;;;;6.70;5.38;;;;;;;;;;6172108;28;20577;-81
2022/06/27 05:38:05;;;;;;;;;;;;;;;;;;6174901;28;20125;-80
2022/06/27 05:41:07;;;;;;;6.13;4.95;;;;;;;;;;6177011;28;19921;-80
2022/06/27 05:44:09;;;;;;;8.90;4.88;;;;;;;;;;6178946;28;20046;-80
2022/06/27 05:47:12;;;;;;;;;;;;;;;;;;6171359;28;20050;-79
2022/06/27 05:50:14;;;;;;;3.60;3.13;;;;;;;;;;6178943;28;20001;-77
2022/06/27 05:53:16;;;;;;;5.88;4.35;;;;;;;;;;6174919;28;20051;-79
2022/06/27 05:56:18;;;;;;;5.28;4.18;;;;;;;;;;6184984;28;20051;-78
2022/06/27 05:59:23;;;;;;;5.78;4.50;;;;;;;;;;6188483;28;20042;-78
2022/06/27 06:02:25;;;;;;;5.30;4.28;;;;;;;;;;6180416;28;20047;-81
2022/06/27 06:05:29;;;;;;;6.00;4.75;;;;;;;;;;6185334;28;20043;-77
2022/06/27 06:08:33;;;;;;;8.75;4.55;;;;;;;;;;6188582;28;20057;-80
2022/06/27 06:11:35;;;;;;;5.55;4.32;;;;;;;;;;6168334;28;20485;-78
2022/06/27 06:14:38;;;;;;;5.10;3.70;;;;;;;;;;6180486;28;20050;-80
2022/06/27 06:17:42;;;;;;;7.07;4.30;;;;;;;;;;6191986;28;20057;-78
2022/06/27 06:20:44;;;;;;;6.25;4.72;;;;;;;;;;6193066;28;20046;-77
2022/06/27 06:23:46;;;;;;;5.30;3.97;;;;;;;;;;6190747;28;20047;-79
2022/06/27 06:26:52;;;;;;;7.97;4.10;;;;;;;;;;6188354;28;20054;-78
2022/06/27 06:29:54;;;;;;;8.27;4.70;;;;;;;;;;6169667;28;20069;-78
2022/06/27 06:32:57;;;;;;;8.55;4.82;;;;;;;;;;6182718;28;20078;-78
2022/06/27 06:35:59;;;;;;;7.60;4.30;;;;;;;;;;6189704;28;20048;-80
2022/06/27 06:39:02;;;;;;;8.90;4.80;;;;;;;;;;6190921;28;20041;-80
2022/06/27 06:42:04;;;;;;;10.20;4.03;;;;;;;;;;6189209;28;20058;-78
2022/06/27 06:45:07;;;;;;;4.55;3.92;;;;;;;;;;6176656;28;20051;-80
2022/06/27 06:48:17;;;;;;;5.25;3.90;;;;;;;;;;6172735;28;20047;-77
2022/06/27 06:51:20;;;;;;;5.10;3.95;;;;;;;;;;6185515;28;20054;-77
2022/06/27 06:54:25;;;;;;;8.05;4.28;;;;;;;;;;6186921;28;20065;-77
2022/06/27 06:57:27;;;;;;;9.95;4.80;;;;;;;;;;6187927;28;20639;-78
2022/06/27 07:00:29;;;;;;;9.05;4.80;;;;;;;;;;6173723;28;20047;-77
2022/06/27 07:03:31;;;;;;;6.18;4.18;;;;;;;;;;6186768;28;20166;-78
2022/06/27 07:06:33;;;;;;;4.03;3.60;;;;;;;;;;6168121;28;20067;-80
2022/06/27 07:09:36;;;;;;;3.83;3.53;;;;;;;;;;6177863;28;20134;-77
2022/06/27 07:12:38;;;;;;;3.88;3.58;;;;;;;;;;6188098;28;20074;-78
2022/06/27 07:15:42;;;;;;;8.93;4.20;;;;;;;;;;6184857;28;20178;-76
2022/06/27 07:18:46;;;;;;;3.67;3.38;;;;;;;;;;6191562;28;20048;-78
2022/06/27 07:21:48;;;;;;;4.10;3.05;;;;;;;;;;6186453;28;20133;-76
2022/06/27 07:24:50;;;;;;;4.43;3.63;;;;;;;;;;6152792;28;20501;-76
2022/06/27 07:27:52;;;;;;;6.03;3.53;;;;;;;;;;6182172;28;20039;-77
2022/06/27 07:30:55;;;;;;;3.57;3.07;;;;;;;;;;6174400;28;20073;-77
2022/06/27 07:33:59;;;;;;;6.30;3.72;;;;;;;;;;6137018;28;20043;-76
2022/06/27 07:37:01;;;;;;;4.47;3.28;;;;;;;;;;6178175;28;20055;-77
2022/06/27 07:40:03;;;;;;;4.00;3.58;;;;;;;;;;6178300;28;20044;-78
2022/06/27 07:43:05;;;;;;;4.18;3.47;;;;;;;;;;6177802;28;20136;-79
2022/06/27 07:46:07;;;;;;;4.15;3.35;;;;;;;;;;6169398;28;20050;-76
2022/06/27 07:49:09;;;;;;;3.80;3.40;;;;;;;;;;6153312;28;20042;-79
2022/06/27 07:52:12;;;;;;;3.85;3.40;;;;;;;;;;6162251;28;20039;-77
2022/06/27 07:55:14;;;;;;;4.95;3.20;;;;;;;;;;6171207;28;20051;-77
2022/06/27 07:58:16;;;;;;;5.80;3.47;;;;;;;;;;6145931;28;20057;-76
2022/06/27 08:01:19;;;;;;;5.82;2.80;;;;;;;;;;6169000;28;20135;-76
2022/06/27 08:04:21;;;;;;;3.95;3.40;;;;;;;;;;6166488;28;20047;-76
2022/06/27 08:07:23;;;;;;;3.30;2.80;;;;;;;;;;6168465;28;20648;-76
2022/06/27 08:10:24;;;;;;;6.80;3.25;;;;;;;;;;6157640;28;20043;-76
2022/06/27 08:13:26;;;;;;;3.85;3.00;;;;;;;;;;6176793;28;20042;-77
2022/06/27 08:16:29;;;;;;;3.58;3.28;;;;;;;;;;6168895;28;20125;-76
2022/06/27 08:19:31;;;;;;;3.20;2.90;;;;;;;;;;6169349;28;20079;-77
2022/06/27 08:22:32;;;;;;;3.22;2.53;;;;;;;;;;6160011;28;20047;-77
2022/06/27 08:25:35;;;;;;;3.10;2.53;;;;;;;;;;6177897;28;20046;-77
2022/06/27 08:28:38;;;;;;;2.70;2.50;;;;;;;;;;6176837;28;20046;-77
2022/06/27 08:31:41;;;;;;;2.50;2.30;;;;;;;;;;6167329;28;20049;-77
2022/06/27 08:34:47;;;;;;;2.72;2.50;;;;;;;;;;6170356;28;20050;-77
2022/06/27 08:37:52;;;;;;;3.25;2.15;;;;;;;;;;6169688;28;20085;-76
2022/06/27 08:40:55;;;;;;;2.45;2.25;;;;;;;;;;6167490;28;20085;-76
2022/06/27 08:44:00;;;;;;;2.85;2.30;;;;;;;;;;6163536;28;20038;-77
2022/06/27 08:47:03;;;;;;;2.13;1.92;;;;;;;;;;6161413;28;20408;-76
2022/06/27 08:50:07;;;;;;;2.92;2.17;;;;;;;;;;6178515;28;20074;-77
2022/06/27 08:53:12;;;;;;;1.85;1.75;;;;;;;;;;6174996;28;20046;-77
2022/06/27 08:56:14;;;;;;;2.30;2.10;;;;;;;;;;6143396;28;20058;-76
2022/06/27 08:59:16;;;;;;;2.88;2.30;;;;;;;;;;6172915;28;20045;-76
2022/06/27 09:02:23;;;;;;;2.50;2.30;;;;;;;;;;6164689;28;20043;-76
2022/06/27 09:05:27;;;;;;;2.75;2.45;;;;;;;;;;6179108;28;20070;-76
2022/06/27 09:08:32;;;;;;;3.28;2.03;;;;;;;;;;6160145;28;20109;-76
2022/06/27 09:11:37;;;;;;;2.15;2.05;;;;;;;;;;6166915;28;20596;-76
2022/06/27 09:14:41;;;;;;;2.83;2.60;;;;;;;;;;6152153;28;20138;-77
2022/06/27 09:17:43;;;;;;;3.08;2.50;;;;;;;;;;6176971;28;20128;-76
2022/06/27 09:20:54;;;;;;;3.13;2.87;;;;;;;;;;6178229;28;20520;-77
2022/06/27 09:23:59;;;;;;;3.17;2.83;;;;;;;;;;6178906;28;20120;-75
2022/06/27 09:27:03;;;;;;;3.17;2.90;;;;;;;;;;6172493;28;20046;-76
2022/06/27 09:30:21;;;;;;;3.80;3.00;;;;;;;;;;6164955;28;20444;-75
2022/06/27 09:33:26;;;;;;;2.92;2.70;;;;;;;;;;6178442;28;20393;-75
2022/06/27 09:36:29;;;;;;;2.83;2.63;;;;;;;;;;6151020;28;20055;-75
2022/06/27 09:39:34;;;;;;;3.40;2.88;;;;;;;;;;6169792;28;20094;-76
2022/06/27 09:42:38;;;;;;;4.00;3.10;;;;;;;;;;6178505;28;20400;-76
2022/06/27 09:45:41;;;;;;;3.00;2.60;;;;;;;;;;6171982;28;20047;-75
2022/06/27 09:48:48;;;;;;;3.45;3.15;;;;;;;;;;6180448;28;20058;-76
2022/06/27 09:51:50;;;;;;;3.27;2.97;;;;;;;;;;6158425;28;20083;-76
2022/06/27 09:54:54;;;;;;;2.97;2.78;;;;;;;;;;6176547;28;20570;-76
2022/06/27 09:57:56;;;;;;;3.67;3.38;;;;;;;;;;6174715;28;20145;-76
2022/06/27 10:00:58;;;;;;;3.08;2.78;;;;;;;;;;6159774;28;20069;-77
2022/06/27 10:04:03;;;;;;;3.15;2.85;;;;;;;;;;6174011;28;20126;-76
2022/06/27 10:07:09;;;;;;;3.33;2.90;;;;;;;;;;6175071;28;20500;-76
2022/06/27 10:10:10;;;;;;;3.00;2.70;;;;;;;;;;6172016;28;20047;-77
2022/06/27 10:13:12;;;;;;;3.43;3.13;;;;;;;;;;6178235;28;20065;-76
2022/06/27 10:16:15;;;;;;;3.35;3.08;;;;;;;;;;6169545;28;20137;-77
2022/06/27 10:19:17;;;;;;;3.78;3.20;;;;;;;;;;6150114;28;20125;-75
2022/06/27 10:22:25;;;;;;;3.70;3.40;;;;;;;;;;6145698;28;20698;-75
2022/06/27 10:25:26;;;;;;;3.58;3.28;;;;;;;;;;6180126;28;20156;-76
2022/06/27 10:28:28;;;;;;;3.88;3.53;;;;;;;;;;6169904;28;20766;-75
2022/06/27 10:31:45;;;;;;;4.32;3.80;;;;;;;;;;6165245;28;20465;-76
2022/06/27 10:34:46;;;;;;;4.60;4.10;;;;;;;;;;6161654;28;20862;-77
2022/06/27 10:37:48;;;;;;;5.18;3.95;;;;;;;;;;6169417;28;20088;-76
2022/06/27 10:40:51;;;;;;;4.35;3.88;;;;;;;;;;6171698;28;20046;-76
2022/06/27 10:43:54;;;;;;;4.93;4.43;;;;;;;;;;6172658;28;20121;-77
2022/06/27 10:46:56;;;;;;;5.70;4.50;;;;;;;;;;6164558;28;20197;-77
2022/06/27 10:50:10;;;;;;;5.22;4.72;;;;;;;;;;6179056;28;20484;-75
2022/06/27 10:53:25;;;;;;;5.68;5.07;;;;;;;;;;6168435;28;20058;-76
2022/06/27 10:56:30;;;;;;;6.28;5.68;;;;;;;;;;6170050;28;20544;-75
2022/06/27 10:59:37;;;;;;;6.20;5.60;;;;;;;;;;6153242;28;20125;-76
2022/06/27 11:02:41;;;;;;;6.57;5.32;;;;;;;;;;6151374;28;20039;-76
2022/06/27 11:06:04;;;;;;;6.45;5.80;;;;;;;;;;6169916;28;20042;-77
2022/06/27 11:09:05;;;;;;;7.05;6.00;;;;;;;;;;6179713;28;20058;-76
2022/06/27 11:12:09;;;;;;;6.80;6.10;;;;;;;;;;6147527;28;20047;-76
2022/06/27 11:15:11;;;;;;;7.05;6.10;;;;;;;;;;6166178;28;20047;-75
2022/06/27 11:18:12;;;;;;;7.63;6.35;;;;;;;;;;6178391;28;20058;-77
2022/06/27 11:21:25;;;;;;;6.50;5.90;;;;;;;;;;6158351;28;20836;-77
2022/06/27 11:24:28;;;;;;;;;;;;;;;;;;6174308;28;20510;-78
2022/06/27 11:31:57;;;;;;;6.65;5.88;;;;;;;;;;6187614;28;19970;-78
2022/06/27 11:34:48;;;;;;;7.13;5.32;;;;;;;;;;6172176;28;20039;-77
2022/06/27 11:37:50;;;;;;;6.38;5.78;;;;;;;;;;6175509;28;20073;-77
2022/06/27 11:41:02;;;;;;;6.70;6.00;;;;;;;;;;6176603;28;20046;-77
2022/06/27 11:44:12;;;;;;;6.75;6.15;;;;;;;;;;6175272;28;20046;-77
2022/06/27 11:47:13;;;;;;;7.00;6.05;;;;;;;;;;6142318;28;20047;-77
2022/06/27 11:50:19;;;;;;;5.95;5.43;;;;;;;;;;6175677;28;20155;-77
2022/06/27 11:53:21;;;;;;;6.00;5.50;;;;;;;;;;6179280;28;20046;-77
2022/06/27 11:56:25;;;;;;;6.75;6.13;;;;;;;;;;6141210;28;20413;-77
2022/06/27 11:59:26;;;;;;;6.63;6.03;;;;;;;;;;6156889;28;20116;-77
2022/06/27 12:02:36;;;;;;;6.60;6.07;;;;;;;;;;6162794;28;20050;-77
2022/06/27 12:05:40;;;;;;;6.90;6.20;;;;;;;;;;6180107;28;20462;-77
2022/06/27 12:09:14;;;;;;;6.95;6.28;;;;;;;;;;6177397;28;20549;-77
2022/06/27 12:12:25;;;;;;;7.65;6.80;;;;;;;;;;6164776;28;20133;-76
2022/06/27 12:15:26;;;;;;;6.88;6.28;;;;;;;;;;6181206;28;20042;-77
2022/06/27 12:18:40;;;;;;;7.20;6.47;;;;;;;;;;6145063;28;20071;-77
2022/06/27 12:21:43;;;;;;;7.57;6.97;;;;;;;;;;6154429;28;20185;-77
2022/06/27 12:24:47;;;;;;;;;;;;;;;;;;6154521;28;20046;-76
2022/06/27 12:27:49;;;;;;;8.77;7.45;;;;;;;;;;6173946;28;19928;-77
2022/06/27 12:30:51;;;;;;;9.13;8.05;;;;;;;;;;6141676;28;20050;-76
2022/06/27 12:33:53;;;;;;;9.90;8.87;;;;;;;;;;6135535;28;20047;-77
2022/06/27 12:36:55;;;;;;;9.27;7.68;;;;;;;;;;6156010;28;20053;-77
2022/06/27 12:39:56;;;;;;;8.07;7.37;;;;;;;;;;6171103;28;20050;-77
2022/06/27 12:42:58;;;;;;;8.18;7.38;;;;;;;;;;6171975;28;20053;-77
2022/06/27 12:45:59;;;;;;;8.68;7.80;;;;;;;;;;6173211;28;20046;-77
2022/06/27 12:49:01;;;;;;;10.20;8.87;;;;;;;;;;6166302;28;20042;-77
2022/06/27 12:52:04;;;;;;;8.87;8.07;;;;;;;;;;6167555;28;20046;-77
2022/06/27 12:55:06;;;;;;;10.25;9.18;;;;;;;;;;6160638;28;20450;-77
2022/06/27 12:58:07;;;;;;;10.07;9.18;;;;;;;;;;6147057;28;20053;-77
2022/06/27 13:01:09;;;;;;;10.25;9.25;;;;;;;;;;6158719;28;20049;-76
2022/06/27 13:04:11;;;;;;;9.50;8.60;;;;;;;;;;6168534;28;20071;-77
2022/06/27 13:07:12;;;;;;;9.73;8.77;;;;;;;;;;6170435;28;20528;-77
2022/06/27 13:10:14;;;;;;;9.17;8.27;;;;;;;;;;6167558;28;20145;-76
2022/06/27 13:13:15;;;;;;;8.70;7.97;;;;;;;;;;6161280;28;20049;-76
2022/06/27 13:16:17;;;;;;;9.30;8.30;;;;;;;;;;6173854;28;20611;-76
2022/06/27 13:19:19;;;;;;;8.90;8.10;;;;;;;;;;6148265;28;20047;-77
2022/06/27 13:22:20;;;;;;;9.80;8.18;;;;;;;;;;6168227;28;20154;-76
2022/06/27 13:25:22;;;;;;;9.10;8.18;;;;;;;;;;6167723;28;20122;-76
2022/06/27 13:28:24;;;;;;;8.77;7.97;;;;;;;;;;6173789;28;20050;-76
2022/06/27 13:31:25;;;;;;;8.07;7.38;;;;;;;;;;6167983;28;20562;-76
2022/06/27 13:34:27;;;;;;;8.57;7.70;;;;;;;;;;6166339;28;20054;-77
2022/06/27 13:37:48;;;;;;;8.13;7.25;;;;;;;;;;6168738;28;20058;-77
2022/06/27 13:40:49;;;;;;;8.55;7.72;;;;;;;;;;6158476;28;20401;-76
2022/06/27 13:43:52;;;;;;;9.52;7.82;;;;;;;;;;6132424;28;20038;-76
2022/06/27 13:46:54;;;;;;;12.05;8.18;;;;;;;;;;6159641;28;20042;-77
2022/06/27 13:49:56;;;;;;;8.40;7.60;;;;;;;;;;6170464;28;20079;-77
2022/06/27 13:53:03;;;;;;;7.90;7.10;;;;;;;;;;6178118;28;20046;-77
2022/06/27 13:56:06;;;;;;;7.80;7.00;;;;;;;;;;6170498;28;20182;-77
2022/06/27 13:59:13;;;;;;;8.43;7.68;;;;;;;;;;6165958;28;20046;-76
2022/06/27 14:02:15;;;;;;;14.73;7.90;;;;;;;;;;6164715;28;20452;-77
2022/06/27 14:05:20;;;;;;;8.18;7.38;;;;;;;;;;6178879;28;20121;-76
2022/06/27 14:08:22;;;;;;;7.70;7.03;;;;;;;;;;6150634;28;20800;-77
2022/06/27 14:11:25;;;;;;;7.85;7.10;;;;;;;;;;6171307;28;20038;-83
2022/06/27 14:14:27;;;;;;;7.72;7.05;;;;;;;;;;6193011;28;20042;-78
2022/06/27 14:17:33;;;;;;;7.18;6.57;;;;;;;;;;6191377;28;20100;-79
2022/06/27 14:20:35;;;;;;;8.20;6.90;;;;;;;;;;6179840;28;20072;-79
2022/06/27 14:23:37;;;;;;;7.53;6.85;;;;;;;;;;6195895;28;20044;-78
2022/06/27 14:26:39;;;;;;;7.87;6.70;;;;;;;;;;6194501;28;20042;-77
2022/06/27 14:29:41;;;;;;;6.47;5.97;;;;;;;;;;6164898;28;20058;-80
2022/06/27 14:32:43;;;;;;;6.60;6.03;;;;;;;;;;6170744;28;20055;-80
2022/06/27 14:36:08;;;;;;;6.70;6.10;;;;;;;;;;6178069;28;20053;-79
2022/06/27 14:39:09;;;;;;;6.10;5.50;;;;;;;;;;6175597;28;20058;-79
2022/06/27 14:42:11;;;;;;;7.10;5.53;;;;;;;;;;6181410;28;20049;-78
2022/06/27 14:45:13;;;;;;;6.63;6.00;;;;;;;;;;6174291;28;20072;-78
2022/06/27 14:48:14;;;;;;;6.80;6.00;;;;;;;;;;6181840;28;20550;-78
2022/06/27 14:51:23;;;;;;;8.68;6.30;;;;;;;;;;6178229;28;20054;-77
2022/06/27 14:54:26;;;;;;;7.00;6.30;;;;;;;;;;6173855;28;20185;-78
2022/06/27 14:57:27;;;;;;;9.13;6.68;;;;;;;;;;6180917;28;20042;-78
2022/06/27 15:00:30;;;;;;;7.03;6.32;;;;;;;;;;6165995;28;20138;-78
2022/06/27 15:03:31;;;;;;;8.60;7.13;;;;;;;;;;6178906;28;20053;-79
2022/06/27 15:06:33;;;;;;;7.93;6.45;;;;;;;;;;6179966;28;20124;-83
2022/06/27 15:09:35;;;;;;;8.48;7.00;;;;;;;;;;6167622;28;20058;-79
2022/06/27 15:12:36;;;;;;;8.18;7.03;;;;;;;;;;6170879;28;20493;-79
2022/06/27 15:15:38;;;;;;;10.35;8.95;;;;;;;;;;6156216;28;20042;-79
2022/06/27 15:18:40;;;;;;;11.80;10.13;;;;;;;;;;6181457;28;20100;-78
2022/06/27 15:21:43;;;;;;;14.63;9.93;;;;;;;;;;6179023;28;20131;-80
2022/06/27 15:25:05;;;;;;;12.07;8.73;;;;;;;;;;6175689;28;20057;-80
2022/06/27 15:28:07;;;;;;;9.90;7.85;;;;;;;;;;6171023;28;20098;-78
2022/06/27 15:31:08;;;;;;;8.40;7.32;;;;;;;;;;6167470;28;20038;-79
2022/06/27 15:34:10;;;;;;;7.95;7.15;;;;;;;;;;6173937;28;20785;-79
2022/06/27 15:37:13;;;;;;;8.00;7.20;;;;;;;;;;6176342;28;20061;-80
2022/06/27 15:40:15;;;;;;;10.32;8.50;;;;;;;;;;6168300;28;20043;-79
2022/06/27 15:43:17;;;;;;;11.43;8.32;;;;;;;;;;6179869;28;20051;-80
2022/06/27 15:46:19;;;;;;;8.70;7.80;;;;;;;;;;6173783;28;20137;-80
2022/06/27 15:49:21;;;;;;;10.57;8.23;;;;;;;;;;6150477;28;20053;-80
2022/06/27 15:52:23;;;;;;;9.77;7.85;;;;;;;;;;6178418;28;20132;-79
2022/06/27 15:55:24;;;;;;;8.82;7.95;;;;;;;;;;6153811;28;20130;-79
2022/06/27 15:58:27;;;;;;;10.27;8.18;;;;;;;;;;6178015;28;20049;-79
2022/06/27 16:01:29;;;;;;;8.73;7.82;;;;;;;;;;6170980;28;20125;-78
2022/06/27 16:04:31;;;;;;;;;;;;;;;;;;6164255;28;20078;-80
2022/06/27 16:07:33;;;;;;;8.57;7.38;;;;;;;;;;6151806;28;20556;-79
2022/06/27 16:10:35;;;;;;;8.65;7.72;;;;;;;;;;6173273;28;20110;-78
2022/06/27 16:13:37;;;;;;;9.00;7.28;;;;;;;;;;6171431;28;20078;-79
2022/06/27 16:16:38;;;;;;;9.60;7.00;;;;;;;;;;6167986;28;20125;-78
2022/06/27 16:19:40;;;;;;;7.57;6.50;;;;;;;;;;6176126;28;20051;-80
2022/06/27 16:23:03;;;;;;;6.88;6.28;;;;;;;;;;6169909;28;20053;-80
2022/06/27 16:26:06;;;;;;;7.43;6.13;;;;;;;;;;6173544;28;20038;-79
2022/06/27 16:29:08;;;;;;;5.95;5.28;;;;;;;;;;6169659;28;20142;-79
2022/06/27 16:32:09;;;;;;;7.22;5.60;;;;;;;;;;6143848;28;20082;-79
2022/06/27 16:35:11;;;;;;;7.53;6.70;;;;;;;;;;6149468;28;20054;-80
2022/06/27 16:38:13;;;;;;;7.00;6.05;;;;;;;;;;6170795;28;20453;-79
2022/06/27 16:41:14;;;;;;;6.25;5.60;;;;;;;;;;6175245;28;20116;-80
2022/06/27 16:44:16;;;;;;;6.30;5.70;;;;;;;;;;6166589;28;20124;-81
2022/06/27 16:47:18;;;;;;;6.80;5.93;;;;;;;;;;6166694;28;20574;-78
2022/06/27 16:50:19;;;;;;;9.35;6.82;;;;;;;;;;6177024;28;20404;-79
2022/06/27 16:53:21;;;;;;;6.55;5.88;;;;;;;;;;6152935;28;20054;-79
2022/06/27 16:56:23;;;;;;;7.95;6.10;;;;;;;;;;6171638;28;20050;-79
2022/06/27 16:59:25;;;;;;;6.83;6.13;;;;;;;;;;6182533;28;20050;-79
2022/06/27 17:02:26;;;;;;;6.50;5.88;;;;;;;;;;6170918;28;20043;-80
2022/06/27 17:05:28;;;;;;;6.40;5.60;;;;;;;;;;6149494;28;20049;-81
2022/06/27 17:08:30;;;;;;;7.47;5.57;;;;;;;;;;6179537;28;20077;-81
2022/06/27 17:11:33;;;;;;;6.10;5.50;;;;;;;;;;6176928;28;20051;-83
2022/06/27 17:14:34;;;;;;;6.07;5.43;;;;;;;;;;6189165;28;20130;-83
2022/06/27 17:17:36;;;;;;;6.15;5.55;;;;;;;;;;6178290;28;20520;-83
2022/06/27 17:20:38;;;;;;;5.90;5.33;;;;;;;;;;6182239;28;20133;-86
2022/06/27 17:23:42;;;;;;;5.33;4.83;;;;;;;;;;6171703;28;20453;-82
2022/06/27 17:26:44;;;;;;;4.00;3.60;;;;;;;;;;6168398;28;20094;-82
2022/06/27 17:29:46;;;;;;;4.10;3.60;;;;;;;;;;6171007;28;20517;-82
2022/06/27 17:32:47;;;;;;;3.60;2.87;;;;;;;;;;6174521;28;20051;-79
2022/06/27 17:35:49;;;;;;;2.65;2.35;;;;;;;;;;6180811;28;20469;-80
2022/06/27 17:38:51;;;;;;;4.25;1.40;;;;;;;;;;6181374;28;20047;-81
2022/06/27 17:41:52;;;;;;;4.32;1.30;;;;;;;;;;6144576;28;20563;-80
2022/06/27 17:44:54;;;;;;;1.13;0.90;;;;;;;;;;6177508;28;20057;-81
2022/06/27 17:47:56;;;;;;;1.20;0.90;;;;;;;;;;6170629;28;20493;-80
2022/06/27 17:50:57;;;;;;;1.80;0.95;;;;;;;;;;6172365;28;20496;-81
2022/06/27 17:53:59;;;;;;;2.67;0.82;;;;;;;;;;6174394;28;20138;-80
2022/06/27 17:57:01;;;;;;;1.40;0.80;;;;;;;;;;6170818;28;20130;-81
2022/06/27 18:00:11;;;;;;;1.23;0.80;;;;;;;;;;6171588;28;20417;-81
2022/06/27 18:03:15;;;;;;;0.65;0.65;;;;;;;;;;6174578;28;20078;-81
2022/06/27 18:06:18;;;;;;;1.85;0.80;;;;;;;;;;6176388;28;20108;-81
2022/06/27 18:09:20;;;;;;;1.67;0.52;;;;;;;;;;6166585;28;20071;-81
2022/06/27 18:12:22;;;;;;;1.05;0.77;;;;;;;;;;6150836;28;20057;-82
2022/06/27 18:15:24;;;;;;;0.65;0.50;;;;;;;;;;6158754;28;20071;-81
2022/06/27 18:18:25;;;;;;;1.55;0.55;;;;;;;;;;6179729;28;20101;-82
2022/06/27 18:21:27;;;;;;;1.20;0.68;;;;;;;;;;6175632;28;20039;-81
2022/06/27 18:24:28;;;;;;;0.50;0.50;;;;;;;;;;6191804;28;20043;-81
2022/06/27 18:27:30;;;;;;;2.15;0.70;;;;;;;;;;6173499;28;20073;-81
2022/06/27 18:30:32;;;;;;;1.27;0.70;;;;;;;;;;6145529;28;20058;-80
2022/06/27 18:33:50;;;;;;;0.80;0.80;;;;;;;;;;6162880;28;20046;-81